createdAt,value
2023-11-28T00:01:40.314Z,49.29
2023-11-28T00:04:07.214Z,49.47
2023-11-28T00:06:34.543Z,49.50
2023-11-28T00:09:01.499Z,49.81
2023-11-28T00:11:28.323Z,49.21
2023-11-28T00:13:55.301Z,49.02
2023-11-28T00:16:22.161Z,48.33
2023-11-28T00:18:49.636Z,48.28
2023-11-28T00:21:16.597Z,48.56
2023-11-28T00:23:44.008Z,48.88
2023-11-28T00:26:11.099Z,49.17
2023-11-28T00:28:43.362Z,49.23
2023-11-28T00:31:10.576Z,49.35
2023-11-28T00:33:37.659Z,49.71
2023-11-28T00:36:04.832Z,49.54
2023-11-28T00:38:32.020Z,49.69
2023-11-28T00:40:58.884Z,49.65
2023-11-28T00:43:25.839Z,49.65
2023-11-28T00:45:52.769Z,49.90
2023-11-28T00:48:20.579Z,50.16
2023-11-28T00:50:47.497Z,50.36
2023-11-28T00:53:14.264Z,50.45
2023-11-28T00:55:41.230Z,50.57
2023-11-28T00:58:11.347Z,50.88
2023-11-28T01:00:41.278Z,51.08
2023-11-28T01:03:08.399Z,51.23
2023-11-28T01:05:35.303Z,51.26
2023-11-28T01:08:02.188Z,51.33
2023-11-28T01:10:29.142Z,51.15
2023-11-28T01:12:56.075Z,51.07
2023-11-28T01:15:23.636Z,50.83
2023-11-28T01:17:50.652Z,50.80
2023-11-28T01:20:17.516Z,51.02
2023-11-28T01:22:44.569Z,51.32
2023-11-28T01:25:11.903Z,51.23
2023-11-28T01:27:39.339Z,51.09
2023-11-28T01:30:07.394Z,51.12
2023-11-28T01:32:34.841Z,51.22
2023-11-28T01:35:02.882Z,51.38
2023-11-28T01:37:29.757Z,51.42
2023-11-28T01:39:57.298Z,51.30
2023-11-28T01:42:24.118Z,51.31
2023-11-28T01:44:51.102Z,51.13
2023-11-28T01:47:18.054Z,51.06
2023-11-28T01:49:45.247Z,51.23
2023-11-28T01:52:12.779Z,50.88
2023-11-28T01:54:42.653Z,50.67
2023-11-28T01:57:11.009Z,50.84
2023-11-28T01:59:39.547Z,51.13
2023-11-28T02:02:08.822Z,51.06
2023-11-28T02:04:36.136Z,51.04
2023-11-28T02:07:03.494Z,51.04
2023-11-28T02:09:30.984Z,50.96
2023-11-28T02:11:58.670Z,50.98
2023-11-28T02:14:25.616Z,50.81
2023-11-28T02:16:54.464Z,50.81
2023-11-28T02:19:21.574Z,50.90
2023-11-28T02:21:49.987Z,51.09
2023-11-28T02:24:18.976Z,50.98
2023-11-28T02:26:46.016Z,50.88
2023-11-28T02:29:13.086Z,51.08
2023-11-28T02:31:40.077Z,51.13
2023-11-28T02:34:07.241Z,51.20
2023-11-28T02:36:34.257Z,51.21
2023-11-28T02:39:01.137Z,51.18
2023-11-28T02:41:28.046Z,51.46
2023-11-28T02:43:54.877Z,51.38
2023-11-28T02:46:21.990Z,51.36
2023-11-28T02:48:49.112Z,51.28
2023-11-28T02:51:21.487Z,51.10
2023-11-28T02:53:48.732Z,51.09
2023-11-28T02:56:15.659Z,51.29
2023-11-28T02:58:42.650Z,51.50
2023-11-28T03:01:09.704Z,51.52
2023-11-28T03:03:36.827Z,51.85
2023-11-28T03:06:04.526Z,51.88
2023-11-28T03:08:31.411Z,51.84
2023-11-28T03:10:58.322Z,52.22
2023-11-28T03:13:25.236Z,52.09
2023-11-28T03:15:53.773Z,52.26
2023-11-28T03:18:20.638Z,52.33
2023-11-28T03:20:47.546Z,52.41
2023-11-28T03:23:14.378Z,52.45
2023-11-28T03:25:41.239Z,52.35
2023-11-28T03:28:08.164Z,52.41
2023-11-28T03:30:34.972Z,52.50
2023-11-28T03:33:01.855Z,52.52
2023-11-28T03:35:30.120Z,52.57
2023-11-28T03:37:58.651Z,52.76
2023-11-28T03:40:25.642Z,52.76
2023-11-28T03:42:52.905Z,52.61
2023-11-28T03:45:19.757Z,52.83
2023-11-28T03:47:47.525Z,52.99
2023-11-28T03:50:14.500Z,52.97
2023-11-28T03:52:42.819Z,52.98
2023-11-28T03:55:11.506Z,52.88
2023-11-28T03:57:38.712Z,52.84
2023-11-28T04:00:06.786Z,52.88
2023-11-28T04:02:33.883Z,52.93
2023-11-28T04:05:06.072Z,52.98
2023-11-28T04:07:33.311Z,52.99
2023-11-28T04:10:00.646Z,52.99
2023-11-28T04:12:27.737Z,52.95
2023-11-28T04:14:54.550Z,53.13
2023-11-28T04:17:21.673Z,53.15
2023-11-28T04:19:48.676Z,53.07
2023-11-28T04:22:15.520Z,53.27
2023-11-28T04:24:45.489Z,53.36
2023-11-28T04:27:14.381Z,53.28
2023-11-28T04:29:42.632Z,53.34
2023-11-28T04:32:13.159Z,53.29
2023-11-28T04:34:40.213Z,53.20
2023-11-28T04:37:07.444Z,53.04
2023-11-28T04:39:37.582Z,53.04
2023-11-28T04:42:04.647Z,53.17
2023-11-28T04:44:31.446Z,53.24
2023-11-28T04:46:58.562Z,53.12
2023-11-28T04:49:25.540Z,53.08
2023-11-28T04:51:52.967Z,53.27
2023-11-28T04:54:22.009Z,53.21
2023-11-28T04:56:48.986Z,53.45
2023-11-28T04:59:16.152Z,53.68
2023-11-28T05:01:46.900Z,53.58
2023-11-28T05:04:15.010Z,53.77
2023-11-28T05:06:42.178Z,53.81
2023-11-28T05:09:10.026Z,53.80
2023-11-28T05:11:36.930Z,53.87
2023-11-28T05:14:05.101Z,53.81
2023-11-28T05:16:41.526Z,53.80
2023-11-28T05:19:16.544Z,53.98
2023-11-28T05:21:43.546Z,53.67
2023-11-28T05:24:10.902Z,53.65
2023-11-28T05:26:37.891Z,53.80
2023-11-28T05:29:05.024Z,53.85
2023-11-28T05:31:31.988Z,54.05
2023-11-28T05:33:58.995Z,54.29
2023-11-28T05:36:27.734Z,54.32
2023-11-28T05:38:57.061Z,54.56
2023-11-28T05:41:25.054Z,54.49
2023-11-28T05:43:52.626Z,54.60
2023-11-28T05:46:19.648Z,54.62
2023-11-28T05:48:46.846Z,54.53
2023-11-28T05:51:14.947Z,54.69
2023-11-28T05:53:42.688Z,54.63
2023-11-28T05:56:11.830Z,54.66
2023-11-28T05:58:39.063Z,54.88
2023-11-28T06:01:09.118Z,55.01
2023-11-28T06:03:36.340Z,55.08
2023-11-28T06:06:04.108Z,55.18
2023-11-28T06:09:03.699Z,55.16
2023-11-28T06:11:30.615Z,55.23
2023-11-28T06:13:58.909Z,55.18
2023-11-28T06:16:26.001Z,55.14
2023-11-28T06:18:53.126Z,55.20
2023-11-28T06:21:20.156Z,55.18
2023-11-28T06:23:47.152Z,55.20
2023-11-28T06:26:14.097Z,55.33
2023-11-28T06:28:42.033Z,55.10
2023-11-28T06:31:09.151Z,55.18
2023-11-28T06:33:36.132Z,55.21
2023-11-28T06:36:04.170Z,55.22
2023-11-28T06:38:31.295Z,55.15
2023-11-28T06:40:58.323Z,54.97
2023-11-28T06:43:25.334Z,55.14
2023-11-28T06:45:53.771Z,55.17
2023-11-28T06:48:20.787Z,54.96
2023-11-28T06:50:47.614Z,55.10
2023-11-28T06:53:14.737Z,55.10
2023-11-28T06:55:42.428Z,55.15
2023-11-28T06:58:09.274Z,55.15
2023-11-28T07:00:36.752Z,55.33
2023-11-28T07:03:07.424Z,55.27
2023-11-28T07:05:34.356Z,55.42
2023-11-28T07:08:02.346Z,55.46
2023-11-28T07:10:29.818Z,55.36
2023-11-28T07:13:01.468Z,55.37
2023-11-28T07:15:28.585Z,55.34
2023-11-28T07:17:56.049Z,55.27
2023-11-28T07:20:23.104Z,55.17
2023-11-28T07:22:49.967Z,55.03
2023-11-28T07:25:17.683Z,54.96
2023-11-28T07:27:44.719Z,54.82
2023-11-28T07:30:12.400Z,54.82
2023-11-28T07:32:39.356Z,54.74
2023-11-28T07:35:07.220Z,55.03
2023-11-28T07:37:34.190Z,54.74
2023-11-28T07:40:01.274Z,54.76
2023-11-28T07:42:28.652Z,54.94
2023-11-28T07:44:55.759Z,54.92
2023-11-28T07:47:22.794Z,54.70
2023-11-28T07:49:50.136Z,54.55
2023-11-28T07:55:55.775Z,54.37
2023-11-28T07:58:39.985Z,54.20
2023-11-28T08:01:07.038Z,54.26
2023-11-28T08:03:34.009Z,54.32
2023-11-28T08:06:04.181Z,54.30
2023-11-28T08:08:31.869Z,54.37
2023-11-28T08:11:00.701Z,54.29
2023-11-28T08:13:29.387Z,54.21
2023-11-28T08:15:59.484Z,54.31
2023-11-28T08:18:27.126Z,54.18
2023-11-28T08:20:54.125Z,54.08
2023-11-28T08:23:21.051Z,54.06
2023-11-28T08:25:48.245Z,54.15
2023-11-28T08:28:15.354Z,54.14
2023-11-28T08:30:50.267Z,54.29
2023-11-28T08:33:20.282Z,54.43
2023-11-28T08:35:49.826Z,54.38
2023-11-28T08:38:17.169Z,54.33
2023-11-28T08:40:44.401Z,54.09
2023-11-28T08:43:11.462Z,54.01
2023-11-28T08:45:38.675Z,54.13
2023-11-28T08:48:05.944Z,54.22
2023-11-28T08:50:33.006Z,54.17
2023-11-28T08:53:00.018Z,54.09
2023-11-28T08:55:26.838Z,54.02
2023-11-28T08:57:53.644Z,53.91
2023-11-28T09:00:21.159Z,54.23
2023-11-28T09:02:48.213Z,54.23
2023-11-28T09:05:16.271Z,54.26
2023-11-28T09:07:43.218Z,54.23
2023-11-28T09:10:10.397Z,54.12
2023-11-28T09:12:37.490Z,54.11
2023-11-28T09:15:05.647Z,54.06
2023-11-28T09:17:35.959Z,54.26
2023-11-28T09:20:03.231Z,54.22
2023-11-28T09:22:30.176Z,54.01
2023-11-28T09:24:57.048Z,54.04
2023-11-28T09:27:24.010Z,53.98
2023-11-28T09:29:52.694Z,53.79
2023-11-28T09:32:21.602Z,53.52
2023-11-28T09:34:48.525Z,53.66
2023-11-28T09:37:15.498Z,53.49
2023-11-28T09:39:42.941Z,53.50
2023-11-28T09:42:13.983Z,53.32
2023-11-28T09:44:46.860Z,53.37
2023-11-28T09:47:17.350Z,53.18
2023-11-28T09:49:44.578Z,53.07
2023-11-28T09:52:14.949Z,52.75
2023-11-28T09:54:42.084Z,52.69
2023-11-28T09:57:10.218Z,52.51
2023-11-28T09:59:45.068Z,52.19
2023-11-28T10:02:16.207Z,51.81
2023-11-28T10:04:43.697Z,51.68
2023-11-28T10:07:12.907Z,52.03
2023-11-28T10:09:48.152Z,52.15
2023-11-28T10:12:17.195Z,52.34
2023-11-28T10:14:47.868Z,52.29
2023-11-28T10:17:17.104Z,52.15
2023-11-28T10:19:46.296Z,52.01
2023-11-28T10:22:16.679Z,51.61
2023-11-28T10:24:43.695Z,51.44
2023-11-28T10:27:14.208Z,51.32
2023-11-28T10:29:40.986Z,51.31
2023-11-28T10:32:08.443Z,51.25
2023-11-28T10:34:38.134Z,50.99
2023-11-28T10:37:05.190Z,50.71
2023-11-28T10:39:33.560Z,50.75
2023-11-28T10:42:04.516Z,50.73
2023-11-28T10:44:31.724Z,50.77
2023-11-28T10:47:00.528Z,50.93
2023-11-28T10:49:27.543Z,50.98
2023-11-28T10:51:57.435Z,50.65
2023-11-28T10:54:26.857Z,50.68
2023-11-28T10:56:58.055Z,50.39
2023-11-28T10:59:38.553Z,50.26
2023-11-28T11:02:06.340Z,50.08
2023-11-28T11:04:34.090Z,50.15
2023-11-28T11:07:01.745Z,50.16
2023-11-28T11:09:29.372Z,49.95
2023-11-28T11:11:57.999Z,49.96
2023-11-28T11:14:53.585Z,49.50
2023-11-28T11:17:32.669Z,49.48
2023-11-28T11:20:01.368Z,49.36
2023-11-28T11:22:33.958Z,49.18
2023-11-28T11:25:01.795Z,49.12
2023-11-28T11:27:29.850Z,48.90
2023-11-28T11:29:57.066Z,48.85
2023-11-28T11:32:24.901Z,48.35
2023-11-28T11:34:54.751Z,48.30
2023-11-28T11:37:30.030Z,48.07
2023-11-28T11:40:00.835Z,47.81
2023-11-28T11:42:30.022Z,47.70
2023-11-28T11:45:04.168Z,47.43
2023-11-28T11:47:33.483Z,48.18
2023-11-28T11:50:06.574Z,48.31
2023-11-28T11:52:34.893Z,47.55
2023-11-28T11:55:04.771Z,47.88
2023-11-28T11:57:31.820Z,47.28
2023-11-28T12:00:00.039Z,46.98
2023-11-28T12:02:40.188Z,46.89
2023-11-28T12:05:08.718Z,46.68
2023-11-28T12:07:35.972Z,46.32
2023-11-28T12:10:11.282Z,46.54
2023-11-28T12:12:40.840Z,46.59
2023-11-28T12:15:09.495Z,46.81
2023-11-28T12:17:38.618Z,46.94
2023-11-28T12:20:09.314Z,46.92
2023-11-28T12:22:36.627Z,46.90
2023-11-28T12:25:03.746Z,47.12
2023-11-28T12:27:31.184Z,47.18
2023-11-28T12:29:59.993Z,47.09
2023-11-28T12:32:30.346Z,47.14
2023-11-28T12:34:58.362Z,47.39
2023-11-28T12:37:25.463Z,47.43
2023-11-28T12:39:55.904Z,47.44
2023-11-28T12:42:26.920Z,47.64
2023-11-28T12:45:02.277Z,47.76
2023-11-28T12:47:29.477Z,47.87
2023-11-28T12:49:57.094Z,47.99
2023-11-28T12:52:27.281Z,48.11
2023-11-28T12:54:54.157Z,48.07
2023-11-28T12:57:22.669Z,48.04
2023-11-28T12:59:55.922Z,48.15
2023-11-28T13:02:27.800Z,48.36
2023-11-28T13:04:57.506Z,48.23
2023-11-28T13:07:33.129Z,48.14
2023-11-28T13:10:06.333Z,48.11
2023-11-28T13:12:33.228Z,48.24
2023-11-28T13:15:05.932Z,48.44
2023-11-28T13:17:33.129Z,48.46
2023-11-28T13:20:00.275Z,48.53
2023-11-28T13:22:28.164Z,48.75
2023-11-28T13:24:55.331Z,48.77
2023-11-28T13:27:22.282Z,48.94
2023-11-28T13:29:51.798Z,49.01
2023-11-28T13:32:18.768Z,49.06
2023-11-28T13:34:46.655Z,49.17
2023-11-28T13:37:14.224Z,49.39
2023-11-28T13:39:44.302Z,49.29
2023-11-28T13:42:14.192Z,49.50
2023-11-28T13:44:41.247Z,49.48
2023-11-28T13:47:08.630Z,49.57
2023-11-28T13:49:35.791Z,49.76
2023-11-28T13:52:02.806Z,49.87
2023-11-28T13:54:29.894Z,50.02
2023-11-28T13:56:57.328Z,50.27
2023-11-28T13:59:24.345Z,50.49
2023-11-28T14:01:51.604Z,50.37
2023-11-28T14:04:18.579Z,50.23
2023-11-28T14:06:45.537Z,50.14
2023-11-28T14:09:13.883Z,50.13
2023-11-28T14:11:40.865Z,50.11
2023-11-28T14:14:09.290Z,50.14
2023-11-28T14:16:36.400Z,50.04
2023-11-28T14:19:03.327Z,50.06
2023-11-28T14:21:31.346Z,50.04
2023-11-28T14:23:58.239Z,50.02
2023-11-28T14:26:25.810Z,50.16
2023-11-28T14:28:55.160Z,50.36
2023-11-28T14:31:25.074Z,50.33
2023-11-28T14:33:55.162Z,50.39
2023-11-28T14:36:22.117Z,50.39
2023-11-28T14:38:49.172Z,50.46
2023-11-28T14:41:16.308Z,50.59
2023-11-28T14:43:43.238Z,50.76
2023-11-28T14:46:10.728Z,50.68
2023-11-28T14:48:41.496Z,50.81
2023-11-28T14:51:20.830Z,50.89
2023-11-28T14:53:49.382Z,50.99
2023-11-28T14:56:16.410Z,51.17
2023-11-28T14:58:43.385Z,51.44
2023-11-28T15:01:10.405Z,51.60
2023-11-28T15:03:37.711Z,52.16
2023-11-28T15:06:08.323Z,52.34
2023-11-28T15:08:40.485Z,52.64
2023-11-28T15:11:10.444Z,52.86
2023-11-28T15:13:39.772Z,53.06
2023-11-28T15:16:07.686Z,53.07
2023-11-28T15:18:34.818Z,53.24
2023-11-28T15:21:02.446Z,53.43
2023-11-28T15:23:29.585Z,53.59
2023-11-28T15:25:56.733Z,53.58
2023-11-28T15:28:23.791Z,53.82
2023-11-28T15:30:51.804Z,54.06
2023-11-28T15:33:19.132Z,54.10
2023-11-28T15:35:46.207Z,54.25
2023-11-28T15:38:13.291Z,54.22
2023-11-28T15:40:42.594Z,54.46
2023-11-28T15:43:09.876Z,54.42
2023-11-28T15:45:36.948Z,54.74
2023-11-28T15:48:05.795Z,54.80
2023-11-28T15:50:34.873Z,54.84
2023-11-28T15:53:02.074Z,54.90
2023-11-28T15:55:29.027Z,54.94
2023-11-28T15:57:56.970Z,55.01
2023-11-28T16:00:24.100Z,55.06
2023-11-28T16:02:53.777Z,55.20
2023-11-28T16:05:21.774Z,55.15
2023-11-28T16:07:51.690Z,55.15
2023-11-28T16:10:18.680Z,55.42
2023-11-28T16:12:45.755Z,55.43
2023-11-28T16:15:13.456Z,55.56
2023-11-28T16:17:41.641Z,55.69
2023-11-28T16:20:11.062Z,55.81
2023-11-28T16:22:42.216Z,55.93
2023-11-28T16:25:09.719Z,56.14
2023-11-28T16:27:39.783Z,56.26
2023-11-28T16:30:08.100Z,56.50
2023-11-28T16:32:38.145Z,56.37
2023-11-28T16:35:06.049Z,56.58
2023-11-28T16:37:33.204Z,56.66
2023-11-28T16:40:02.681Z,56.80
2023-11-28T16:42:30.160Z,56.95
2023-11-28T16:45:02.696Z,56.93
2023-11-28T16:47:30.867Z,56.89
2023-11-28T16:49:57.798Z,56.97
2023-11-28T16:52:33.775Z,57.02
2023-11-28T16:55:00.741Z,57.16
2023-11-28T16:57:27.710Z,57.31
2023-11-28T16:59:55.035Z,57.62
2023-11-28T17:02:22.466Z,57.62
2023-11-28T17:04:54.430Z,57.66
2023-11-28T17:07:25.847Z,57.72
2023-11-28T17:09:54.786Z,57.78
2023-11-28T17:12:34.913Z,57.78
2023-11-28T17:15:05.587Z,57.89
2023-11-28T17:17:37.762Z,57.91
2023-11-28T17:20:13.533Z,58.04
2023-11-28T17:22:48.830Z,58.01
2023-11-28T17:25:28.379Z,57.85
2023-11-28T17:28:07.970Z,58.03
2023-11-28T17:30:35.560Z,58.00
2023-11-28T17:33:20.840Z,58.22
2023-11-28T17:35:56.448Z,58.34
2023-11-28T17:38:32.051Z,58.51
2023-11-28T17:41:18.106Z,58.72
2023-11-28T17:43:52.476Z,58.85
2023-11-28T17:46:58.157Z,58.84
2023-11-28T17:49:33.126Z,58.97
2023-11-28T17:52:12.050Z,59.14
2023-11-28T17:54:39.165Z,59.18
2023-11-28T17:57:12.822Z,59.38
2023-11-28T17:59:44.973Z,59.59
2023-11-28T18:02:19.225Z,60.00
2023-11-28T18:04:46.418Z,60.22
2023-11-28T18:07:19.005Z,60.38
2023-11-28T18:09:55.436Z,60.58
2023-11-28T18:12:31.565Z,60.84
2023-11-28T18:15:03.219Z,61.01
2023-11-28T18:20:49.708Z,61.33
2023-11-28T18:23:30.334Z,61.43
2023-11-28T18:26:12.415Z,61.52
2023-11-28T18:28:52.553Z,61.64
2023-11-28T18:31:24.937Z,61.82
2023-11-28T18:33:55.894Z,61.94
2023-11-28T18:36:24.992Z,62.14
2023-11-28T18:38:58.121Z,62.29
2023-11-28T18:41:34.441Z,62.29
2023-11-28T18:44:15.551Z,62.35
2023-11-28T18:46:42.959Z,62.51
2023-11-28T18:49:09.873Z,62.67
2023-11-28T18:51:40.463Z,62.58
2023-11-28T18:54:12.108Z,62.75
2023-11-28T18:56:42.201Z,63.05
2023-11-28T18:59:20.299Z,63.00
2023-11-28T19:01:53.189Z,63.12
2023-11-28T19:04:23.266Z,63.17
2023-11-28T19:06:51.996Z,63.27
2023-11-28T19:09:27.863Z,63.37
2023-11-28T19:12:05.268Z,63.50
2023-11-28T19:14:38.600Z,63.86
2023-11-28T19:19:54.708Z,64.54
2023-11-28T19:22:28.306Z,64.89
2023-11-28T19:24:59.463Z,65.00
2023-11-28T19:27:57.350Z,65.28
2023-11-28T19:30:49.505Z,65.94
2023-11-28T19:33:35.224Z,66.06
2023-11-28T19:36:21.403Z,66.24
2023-11-28T19:39:13.819Z,66.49
2023-11-28T19:41:43.972Z,66.96
2023-11-28T19:44:13.824Z,67.45
2023-11-28T19:46:42.679Z,67.73
2023-11-28T19:49:11.222Z,67.81
2023-11-28T19:51:40.482Z,67.89
2023-11-28T19:54:07.442Z,67.93
2023-11-28T19:56:34.452Z,67.81
2023-11-28T19:59:03.567Z,67.67
2023-11-28T20:01:30.861Z,67.73
2023-11-28T20:03:58.249Z,67.58
2023-11-28T20:06:25.986Z,67.38
2023-11-28T20:08:56.341Z,67.42
2023-11-28T20:11:23.381Z,67.33
2023-11-28T20:13:50.373Z,67.25
2023-11-28T20:16:17.225Z,66.98
2023-11-28T20:18:44.130Z,66.82
2023-11-28T20:21:11.114Z,66.66
2023-11-28T20:23:42.550Z,66.39
2023-11-28T20:26:09.455Z,66.14
2023-11-28T20:28:36.508Z,66.06
2023-11-28T20:31:03.563Z,66.05
2023-11-28T20:33:38.815Z,65.99
2023-11-28T20:36:08.487Z,65.89
2023-11-28T20:38:36.027Z,65.87
2023-11-28T20:41:04.780Z,65.89
2023-11-28T20:43:31.690Z,65.87
2023-11-28T20:45:58.965Z,65.76
2023-11-28T20:48:25.932Z,65.68
2023-11-28T20:50:53.087Z,65.67
2023-11-28T20:53:21.294Z,65.62
2023-11-28T20:55:48.223Z,65.52
2023-11-28T20:58:15.525Z,65.53
2023-11-28T21:00:42.441Z,65.36
2023-11-28T21:03:09.470Z,65.08
2023-11-28T21:05:36.567Z,65.05
2023-11-28T21:08:05.278Z,64.80
2023-11-28T21:10:34.384Z,64.61
2023-11-28T21:13:01.531Z,64.43
2023-11-28T21:15:28.376Z,64.34
2023-11-28T21:17:55.454Z,64.32
2023-11-28T21:20:22.500Z,64.17
2023-11-28T21:22:52.752Z,64.08
2023-11-28T21:25:22.165Z,64.00
2023-11-28T21:27:50.635Z,63.95
2023-11-28T21:30:22.885Z,63.79
2023-11-28T21:32:50.172Z,63.85
2023-11-28T21:35:17.421Z,63.71
2023-11-28T21:37:45.083Z,63.12
2023-11-28T21:40:12.269Z,63.05
2023-11-28T21:42:39.663Z,63.32
2023-11-28T21:45:06.942Z,63.44
2023-11-28T21:47:36.675Z,63.52
2023-11-28T21:50:10.907Z,63.74
2023-11-28T21:52:39.743Z,63.77
2023-11-28T21:55:07.601Z,63.74
2023-11-28T21:57:34.817Z,63.69
2023-11-28T22:00:01.732Z,63.66
2023-11-28T22:02:38.896Z,63.55
2023-11-28T22:05:05.815Z,63.53
2023-11-28T22:07:32.824Z,63.47
2023-11-28T22:09:59.560Z,63.50
2023-11-28T22:12:26.472Z,63.38
2023-11-28T22:14:53.337Z,63.25
2023-11-28T22:17:20.739Z,63.39
2023-11-28T22:19:47.596Z,63.16
2023-11-28T22:22:14.495Z,63.08
2023-11-28T22:24:41.404Z,63.06
2023-11-28T22:27:09.233Z,62.99
2023-11-28T22:29:38.927Z,62.94
2023-11-28T22:32:05.980Z,63.06
2023-11-28T22:34:32.822Z,63.00
2023-11-28T22:36:59.799Z,63.02
2023-11-28T22:39:26.762Z,62.97
2023-11-28T22:41:53.718Z,62.95
2023-11-28T22:44:20.664Z,62.97
2023-11-28T22:46:47.533Z,62.87
2023-11-28T22:49:14.364Z,62.73
2023-11-28T22:51:41.308Z,62.69
2023-11-28T22:54:08.307Z,62.68
2023-11-28T22:56:35.955Z,62.59
2023-11-28T22:59:16.103Z,62.42
2023-11-28T23:01:44.317Z,62.48
2023-11-28T23:04:11.400Z,62.40
2023-11-28T23:06:38.430Z,62.49
2023-11-28T23:09:05.907Z,62.52
2023-11-28T23:11:33.844Z,62.64
2023-11-28T23:14:02.171Z,62.70
2023-11-28T23:16:29.269Z,62.55
2023-11-28T23:18:56.282Z,62.69
2023-11-28T23:21:23.493Z,62.69
2023-11-28T23:23:50.409Z,62.83
2023-11-28T23:26:18.354Z,62.81
2023-11-28T23:28:45.470Z,62.71
2023-11-28T23:31:12.849Z,62.79
2023-11-28T23:33:39.714Z,62.99
2023-11-28T23:36:07.022Z,63.16
2023-11-28T23:38:33.988Z,63.12
2023-11-28T23:41:00.964Z,63.21
2023-11-28T23:43:27.780Z,63.18
2023-11-28T23:45:54.868Z,63.32
2023-11-28T23:48:22.039Z,63.43
2023-11-28T23:50:51.799Z,63.68
2023-11-28T23:53:18.868Z,63.77
2023-11-28T23:55:45.675Z,63.94
2023-11-28T23:58:12.706Z,64.05
